Time;durP1;ratioP1;P1;durP2;ratioP2;P2;SDS_P1;SDS_P2;PMS_P1;PMS_P2;Temp;Humidity;BMP_temperature;BMP_pressure;BME280_temperature;BME280_humidity;BME280_pressure;Samples;Min_cycle;Max_cycle;Signal;HPM_P1;HPM_P2
2021/04/19 00:01:25;;;;;;;3.63;1.58;;;;;;;10.02;34.75;101584.91;5085328;28;20016;-64
2021/04/19 00:03:51;;;;;;;5.70;1.52;;;;;;;10.04;34.44;101589.28;5085507;28;20088;-64
2021/04/19 00:06:16;;;;;;;4.88;1.90;;;;;;;10.16;34.39;101582.47;5084169;28;20089;-65
2021/04/19 00:08:42;;;;;;;5.25;1.75;;;;;;;10.09;34.38;101593.66;5084174;28;20032;-63
2021/04/19 00:11:07;;;;;;;7.32;1.80;;;;;;;10.12;34.35;101579.00;5085417;28;20111;-64
2021/04/19 00:13:32;;;;;;;2.25;1.50;;;;;;;10.03;34.40;101581.47;5085622;28;20035;-64
2021/04/19 00:15:58;;;;;;;2.55;1.02;;;;;;;9.97;34.49;101573.63;5083830;28;20250;-64
2021/04/19 00:18:23;;;;;;;5.10;1.85;;;;;;;9.84;34.95;101582.94;5085574;28;20066;-63
2021/04/19 00:20:48;;;;;;;3.10;1.63;;;;;;;9.75;35.11;101587.16;5085277;28;20464;-63
2021/04/19 00:23:14;;;;;;;4.50;1.70;;;;;;;9.76;35.10;101583.69;5083761;28;20100;-65
2021/04/19 00:25:39;;;;;;;3.38;1.30;;;;;;;9.84;34.87;101583.81;5085270;28;20020;-63
2021/04/19 00:28:05;;;;;;;4.65;2.67;;;;;;;9.70;35.06;101587.91;5085352;28;20618;-64
2021/04/19 00:30:30;;;;;;;2.25;1.45;;;;;;;9.78;34.77;101581.13;5084776;28;20020;-64
2021/04/19 00:32:56;;;;;;;4.88;1.45;;;;;;;9.78;34.80;101586.31;5085138;28;20021;-63
2021/04/19 00:35:21;;;;;;;4.82;1.77;;;;;;;9.66;35.04;101582.69;5085154;28;20494;-64
2021/04/19 00:37:47;;;;;;;2.58;1.58;;;;;;;9.56;35.07;101580.84;5085061;28;20036;-63
2021/04/19 00:40:15;;;;;;;2.75;1.52;;;;;;;9.50;35.36;101583.34;5084977;28;20072;-64
2021/04/19 00:42:51;;;;;;;4.03;1.58;;;;;;;9.69;34.65;101588.78;5084941;28;20020;-64
2021/04/19 00:45:17;;;;;;;1.92;1.38;;;;;;;9.72;34.09;101578.44;5085195;28;20016;-63
2021/04/19 00:47:46;;;;;;;2.65;1.52;;;;;;;9.49;34.67;101586.78;5085366;28;20088;-65
2021/04/19 00:50:15;;;;;;;3.08;1.45;;;;;;;9.55;34.69;101584.28;5082721;28;20060;-64
2021/04/19 00:52:41;;;;;;;2.00;1.25;;;;;;;9.42;34.80;101578.88;5084567;28;20029;-64
2021/04/19 00:55:09;;;;;;;3.17;1.40;;;;;;;9.44;34.80;101580.66;5085189;28;20031;-64
2021/04/19 00:57:34;;;;;;;4.18;1.80;;;;;;;9.28;34.84;101572.66;5084976;28;20031;-64
2021/04/19 01:00:00;;;;;;;2.42;1.52;;;;;;;9.25;34.85;101572.59;5084554;28;20413;-64
2021/04/19 01:02:25;;;;;;;4.82;1.52;;;;;;;9.17;35.15;101573.34;5084667;28;20025;-64
2021/04/19 01:04:51;;;;;;;4.45;1.50;;;;;;;9.18;35.12;101580.25;5084690;28;20046;-64
2021/04/19 01:07:17;;;;;;;4.30;1.75;;;;;;;9.14;35.12;101578.47;5084763;28;20036;-64
2021/04/19 01:09:42;;;;;;;4.45;1.40;;;;;;;9.10;35.38;101571.50;5084726;28;20020;-63
2021/04/19 01:12:08;;;;;;;4.75;1.88;;;;;;;9.09;35.42;101584.44;5083064;28;20025;-63
2021/04/19 01:14:33;;;;;;;3.78;1.38;;;;;;;9.08;35.47;101577.47;5084295;28;20021;-63
2021/04/19 01:16:59;;;;;;;3.47;1.42;;;;;;;9.02;35.46;101573.97;5084310;28;20027;-64
2021/04/19 01:19:26;;;;;;;3.83;1.80;;;;;;;8.99;35.71;101573.03;5084377;28;20017;-64
2021/04/19 01:21:51;;;;;;;3.13;1.70;;;;;;;8.92;35.64;101572.94;5084277;28;20020;-63
2021/04/19 01:24:16;;;;;;;4.32;1.45;;;;;;;8.89;35.73;101574.59;5084263;28;20111;-63
2021/04/19 01:26:42;;;;;;;3.13;2.03;;;;;;;8.84;35.70;101576.22;5084281;28;20038;-64
2021/04/19 01:29:07;;;;;;;3.50;1.48;;;;;;;8.75;35.88;101572.63;5084474;28;20099;-63
2021/04/19 01:31:32;;;;;;;5.15;1.60;;;;;;;8.72;35.91;101574.28;5083644;28;20087;-64
2021/04/19 01:33:58;;;;;;;5.80;1.80;;;;;;;8.64;36.27;101577.59;5084262;28;20067;-64
2021/04/19 01:36:24;;;;;;;2.85;1.52;;;;;;;8.58;36.41;101574.91;5084273;28;20469;-63
2021/04/19 01:38:50;;;;;;;3.45;1.63;;;;;;;8.51;36.71;101575.59;5084203;28;20076;-64
2021/04/19 01:41:15;;;;;;;2.53;1.55;;;;;;;8.41;36.73;101567.66;5083901;28;20089;-64
2021/04/19 01:43:41;;;;;;;3.00;1.45;;;;;;;8.38;36.68;101575.38;5083928;28;20021;-63
2021/04/19 01:46:06;;;;;;;5.35;1.77;;;;;;;8.35;37.21;101569.25;5083638;28;20110;-63
2021/04/19 01:48:32;;;;;;;11.10;1.73;;;;;;;8.30;36.84;101572.63;5083714;28;20055;-63
2021/04/19 01:50:58;;;;;;;4.32;1.80;;;;;;;8.27;37.14;101580.34;5084273;28;20033;-64
2021/04/19 01:53:23;;;;;;;5.05;1.95;;;;;;;8.24;37.18;101569.03;5083727;28;20059;-64
2021/04/19 01:55:49;;;;;;;3.28;1.77;;;;;;;8.18;37.15;101570.66;5084072;28;20078;-63
2021/04/19 01:58:21;;;;;;;2.80;1.30;;;;;;;8.15;37.30;101573.19;5083977;28;20031;-64
2021/04/19 02:00:59;;;;;;;3.78;1.48;;;;;;;8.11;37.26;101573.97;5083512;28;20348;-62
2021/04/19 02:03:59;;;;;;;3.90;1.83;;;;;;;8.05;37.53;101564.34;5083497;28;20074;-63
2021/04/19 02:06:37;;;;;;;3.05;1.73;;;;;;;7.94;37.74;101569.31;5083589;28;20016;-63
2021/04/19 02:09:21;;;;;;;5.18;2.13;;;;;;;7.91;37.71;101573.53;5083573;28;20332;-63
2021/04/19 02:11:55;;;;;;;2.13;1.42;;;;;;;7.89;37.76;101570.91;5083335;28;20055;-64
2021/04/19 02:14:46;;;;;;;3.47;1.80;;;;;;;7.82;38.13;101574.22;5082070;28;20043;-63
2021/04/19 02:17:29;;;;;;;3.30;1.83;;;;;;;7.79;38.05;101574.16;5083575;28;20024;-64
2021/04/19 02:20:13;;;;;;;3.17;1.65;;;;;;;7.74;38.12;101571.47;5083823;28;20103;-63
2021/04/19 02:22:43;;;;;;;3.05;1.73;;;;;;;7.75;38.31;101567.16;5083503;28;20377;-63
2021/04/19 02:25:25;;;;;;;3.35;1.70;;;;;;;7.77;38.23;101570.66;5083542;28;20084;-63
2021/04/19 02:28:09;;;;;;;4.65;1.75;;;;;;;7.71;38.33;101555.00;5083367;28;20042;-63
2021/04/19 02:30:37;;;;;;;4.38;1.50;;;;;;;7.74;38.31;101568.88;5083153;28;20021;-64
2021/04/19 02:33:06;;;;;;;3.38;1.52;;;;;;;7.68;38.33;101561.84;5083593;28;20024;-64
2021/04/19 02:35:33;;;;;;;5.43;1.77;;;;;;;7.67;38.51;101556.66;5083745;28;20021;-63
2021/04/19 02:37:59;;;;;;;4.78;1.38;;;;;;;7.65;38.41;101560.94;5083431;28;20020;-63
2021/04/19 02:40:27;;;;;;;4.75;1.55;;;;;;;7.64;38.45;101556.56;5082356;28;20028;-64
2021/04/19 02:42:56;;;;;;;3.58;1.55;;;;;;;7.62;38.53;101563.44;5083625;28;20384;-64
2021/04/19 02:45:23;;;;;;;5.35;1.70;;;;;;;7.55;38.65;101558.13;5083368;28;20021;-63
2021/04/19 02:47:50;;;;;;;5.10;1.75;;;;;;;7.46;38.92;101557.91;5082122;28;20017;-63
2021/04/19 02:50:18;;;;;;;3.50;1.70;;;;;;;7.44;38.78;101567.34;5083450;28;20078;-64
2021/04/19 02:52:45;;;;;;;4.00;1.48;;;;;;;7.32;39.05;101555.00;5083355;28;20067;-64
2021/04/19 02:55:12;;;;;;;3.38;1.85;;;;;;;7.19;39.33;101546.97;5083358;28;20078;-63
2021/04/19 02:58:02;;;;;;;3.15;1.50;;;;;;;7.20;39.63;101558.19;5083409;28;20360;-64
2021/04/19 03:00:38;;;;;;;3.63;1.83;;;;;;;7.15;39.77;101559.78;5082912;28;20024;-64
2021/04/19 03:03:09;;;;;;;2.70;1.30;;;;;;;7.10;40.04;101567.41;5083284;28;20021;-63
2021/04/19 03:05:37;;;;;;;2.05;1.60;;;;;;;7.00;40.55;101549.91;5083331;28;20051;-64
2021/04/19 03:08:06;;;;;;;3.95;1.80;;;;;;;7.00;40.63;101561.13;5082745;28;20032;-64
2021/04/19 03:10:36;;;;;;;4.75;1.85;;;;;;;6.96;40.95;101566.19;5082980;28;20031;-63
2021/04/19 03:13:03;;;;;;;4.13;1.73;;;;;;;6.93;41.44;101565.25;5085164;28;20040;-64
2021/04/19 03:15:35;;;;;;;2.85;1.60;;;;;;;6.88;41.64;101561.72;5086818;28;20211;-64
2021/04/19 03:18:03;;;;;;;4.03;1.70;;;;;;;6.87;41.87;101559.94;5085678;28;20020;-65
2021/04/19 03:20:45;;;;;;;5.30;1.70;;;;;;;6.81;41.99;101554.63;5086788;28;20430;-64
2021/04/19 03:23:11;;;;;;;4.90;2.03;;;;;;;6.74;42.16;101555.31;5086794;28;20070;-65
2021/04/19 03:25:38;;;;;;;4.97;1.80;;;;;;;6.71;42.35;101563.84;5086827;28;20093;-64
2021/04/19 03:28:05;;;;;;;6.38;2.00;;;;;;;6.66;42.51;101558.56;5086641;28;20031;-65
2021/04/19 03:30:31;;;;;;;3.05;1.40;;;;;;;6.65;42.51;101561.09;5085984;28;20038;-64
2021/04/19 03:32:57;;;;;;;6.43;1.73;;;;;;;6.60;42.64;101563.56;5086135;28;20085;-64
2021/04/19 03:35:29;;;;;;;4.32;1.92;;;;;;;6.57;43.21;101561.78;5086411;28;20031;-65
2021/04/19 03:37:57;;;;;;;2.50;1.88;;;;;;;6.51;43.43;101561.63;5086498;28;20025;-65
2021/04/19 03:40:27;;;;;;;4.65;1.80;;;;;;;6.41;43.50;101560.47;5086682;28;20054;-64
2021/04/19 03:42:56;;;;;;;2.97;1.75;;;;;;;6.37;43.66;101555.19;5086538;28;20024;-64
2021/04/19 03:45:24;;;;;;;3.20;1.58;;;;;;;6.27;43.89;101546.31;5086237;28;20158;-64
2021/04/19 03:47:53;;;;;;;3.58;1.42;;;;;;;6.27;44.13;101561.78;5086550;28;20020;-65
2021/04/19 03:50:22;;;;;;;4.57;2.10;;;;;;;6.24;44.49;101551.41;5086101;28;20044;-65
2021/04/19 03:52:50;;;;;;;2.83;1.70;;;;;;;6.18;44.59;101571.00;5086289;28;20024;-65
2021/04/19 03:55:16;;;;;;;5.43;1.70;;;;;;;6.11;44.65;101556.22;5086214;28;20076;-64
2021/04/19 03:57:45;;;;;;;4.00;2.10;;;;;;;6.04;45.04;101549.06;5086224;28;20415;-64
2021/04/19 04:00:14;;;;;;;3.05;1.40;;;;;;;6.09;45.13;101562.16;5085942;28;20174;-64
2021/04/19 04:02:41;;;;;;;3.72;1.67;;;;;;;6.09;45.67;101559.59;5086234;28;20012;-64
2021/04/19 04:05:07;;;;;;;5.57;1.90;;;;;;;6.03;45.54;101557.66;5086192;28;20016;-63
2021/04/19 04:07:34;;;;;;;4.60;1.70;;;;;;;6.03;45.79;101558.53;5085986;28;20024;-67
2021/04/19 04:10:02;;;;;;;3.75;2.03;;;;;;;5.99;45.67;101555.84;5086188;28;20400;-66
2021/04/19 04:12:28;;;;;;;5.38;2.20;;;;;;;5.95;45.74;101549.69;5085884;28;20119;-66
2021/04/19 04:14:55;;;;;;;3.25;1.60;;;;;;;5.93;45.89;101549.66;5085854;28;20016;-66
2021/04/19 04:17:21;;;;;;;5.10;2.08;;;;;;;5.90;46.06;101547.00;5085905;28;20039;-66
2021/04/19 04:19:47;;;;;;;6.45;1.85;;;;;;;5.96;46.06;101554.00;5086039;28;20024;-67
2021/04/19 04:22:14;;;;;;;4.47;1.50;;;;;;;5.96;45.83;101561.75;5085834;28;20047;-66
2021/04/19 04:24:40;;;;;;;3.35;1.70;;;;;;;6.03;45.83;101557.66;5084906;28;20158;-67
2021/04/19 04:27:06;;;;;;;5.07;2.25;;;;;;;6.11;45.65;101560.47;5085823;28;20469;-66
2021/04/19 04:29:31;;;;;;;4.97;2.15;;;;;;;6.27;45.54;101556.63;5085656;28;20171;-65
2021/04/19 04:31:57;;;;;;;3.85;1.55;;;;;;;6.43;45.25;101553.66;5085449;28;20036;-65
2021/04/19 04:34:23;;;;;;;4.28;1.55;;;;;;;6.68;44.70;101553.44;5084061;28;20103;-66
2021/04/19 04:36:48;;;;;;;2.40;1.15;;;;;;;6.85;44.58;101561.63;5085194;28;20024;-66
2021/04/19 04:39:14;;;;;;;5.95;1.80;;;;;;;7.07;44.10;101564.75;5085485;28;20028;-66
2021/04/19 04:41:39;;;;;;;4.70;1.60;;;;;;;7.26;43.75;101565.19;5085435;28;20023;-66
2021/04/19 04:44:07;;;;;;;2.85;1.65;;;;;;;7.34;43.56;101566.25;5085784;28;20043;-66
2021/04/19 04:46:36;;;;;;;3.67;1.83;;;;;;;7.49;43.44;101563.13;5083789;28;20025;-66
2021/04/19 04:49:11;;;;;;;2.60;1.70;;;;;;;7.61;42.97;101565.16;5085192;28;20055;-67
2021/04/19 04:51:39;;;;;;;3.38;1.65;;;;;;;7.67;42.77;101546.31;5083698;28;20024;-68
2021/04/19 04:54:10;;;;;;;2.72;1.50;;;;;;;7.91;42.47;101552.84;5085170;28;20103;-67
2021/04/19 04:56:40;;;;;;;4.97;1.92;;;;;;;8.13;41.79;101550.72;5085229;28;20028;-67
2021/04/19 04:59:06;;;;;;;3.30;1.65;;;;;;;8.33;41.51;101552.81;5085000;28;20028;-67
2021/04/19 05:01:34;;;;;;;2.97;1.50;;;;;;;8.49;41.09;101548.81;5084683;28;20017;-67
2021/04/19 05:04:01;;;;;;;2.85;1.60;;;;;;;8.69;40.71;101546.59;5085037;28;20504;-66
2021/04/19 05:06:28;;;;;;;8.93;2.10;;;;;;;8.82;40.46;101547.69;5084932;28;20133;-66
2021/04/19 05:08:54;;;;;;;5.03;1.80;;;;;;;9.20;39.82;101556.09;5084822;28;20025;-66
2021/04/19 05:11:20;;;;;;;4.03;2.03;;;;;;;9.51;39.01;101557.44;5084807;28;20047;-67
2021/04/19 05:13:45;;;;;;;3.58;1.30;;;;;;;9.72;39.09;101561.19;5084970;28;20022;-66
2021/04/19 05:16:11;;;;;;;4.75;1.63;;;;;;;10.10;38.71;101562.53;5084276;28;20051;-67
2021/04/19 05:18:36;;;;;;;2.40;1.58;;;;;;;10.46;37.55;101556.88;5084612;28;20043;-65
2021/04/19 05:21:02;;;;;;;5.38;1.80;;;;;;;10.66;37.01;101560.56;5084543;28;20021;-67
2021/04/19 05:23:28;;;;;;;6.28;1.65;;;;;;;10.86;36.91;101561.63;5084606;28;20031;-67
2021/04/19 05:25:54;;;;;;;4.30;1.80;;;;;;;11.00;36.37;101557.41;5084445;28;20021;-67
2021/04/19 05:28:20;;;;;;;3.85;1.52;;;;;;;11.08;36.15;101561.78;5082971;28;20060;-66
2021/04/19 05:30:49;;;;;;;4.03;1.70;;;;;;;11.19;35.69;101567.06;5082551;28;20123;-66
2021/04/19 05:33:15;;;;;;;5.63;1.60;;;;;;;11.25;35.25;101570.59;5084321;28;20085;-65
2021/04/19 05:35:40;;;;;;;2.78;1.60;;;;;;;11.48;34.92;101562.09;5083850;28;20028;-66
2021/04/19 05:38:06;;;;;;;2.95;1.58;;;;;;;11.59;34.58;101563.88;5084286;28;20080;-66
2021/04/19 05:40:34;;;;;;;5.47;1.52;;;;;;;11.69;34.24;101557.00;5082520;28;20132;-66
2021/04/19 05:43:01;;;;;;;4.45;1.73;;;;;;;11.83;33.94;101560.56;5084262;28;20035;-66
2021/04/19 05:45:27;;;;;;;2.50;1.35;;;;;;;11.92;33.62;101559.72;5083904;28;20017;-66
2021/04/19 05:47:53;;;;;;;6.75;1.98;;;;;;;12.05;33.86;101571.06;5084245;28;20077;-66
2021/04/19 05:50:22;;;;;;;4.28;1.90;;;;;;;12.25;33.15;101565.09;5084243;28;20099;-67
2021/04/19 05:52:51;;;;;;;3.20;1.65;;;;;;;12.51;32.98;101561.66;5083941;28;20055;-67
2021/04/19 05:55:20;;;;;;;3.13;1.33;;;;;;;12.57;32.43;101558.22;5084093;28;20081;-67
2021/04/19 05:57:52;;;;;;;5.47;1.55;;;;;;;12.64;32.55;101558.25;5082813;28;20024;-67
2021/04/19 06:00:37;;;;;;;4.05;1.50;;;;;;;12.90;32.00;101561.72;5083916;28;20052;-68
2021/04/19 06:03:16;;;;;;;6.03;1.90;;;;;;;13.08;31.56;101554.78;5083947;28;20036;-67
2021/04/19 06:06:05;;;;;;;4.57;1.67;;;;;;;13.06;31.37;101566.94;5083918;28;20017;-67
2021/04/19 06:09:01;;;;;;;3.15;1.60;;;;;;;13.35;31.02;101564.34;5080168;28;20457;-67
2021/04/19 06:11:35;;;;;;;7.38;1.88;;;;;;;13.48;30.79;101561.69;5083611;28;20039;-67
2021/04/19 06:14:02;;;;;;;3.30;1.77;;;;;;;13.57;30.17;101560.81;5083796;28;20028;-68
2021/04/19 06:16:36;;;;;;;4.85;1.65;;;;;;;13.43;30.23;101553.88;5083513;28;20029;-67
2021/04/19 06:19:03;;;;;;;2.92;1.42;;;;;;;13.33;30.07;101554.75;5083832;28;20123;-67
2021/04/19 06:21:30;;;;;;;5.13;1.60;;;;;;;13.42;30.17;101559.94;5083689;28;20031;-67
2021/04/19 06:23:56;;;;;;;6.25;1.77;;;;;;;13.44;30.09;101553.00;5083650;28;20029;-67
2021/04/19 06:26:21;;;;;;;4.50;1.52;;;;;;;13.79;30.05;101553.81;5083704;28;20042;-67
2021/04/19 06:28:49;;;;;;;3.80;1.45;;;;;;;14.17;29.48;101564.13;5083634;28;20017;-67
2021/04/19 06:31:17;;;;;;;5.88;1.48;;;;;;;14.30;28.98;101560.53;5083107;28;20020;-67
2021/04/19 06:34:00;;;;;;;3.20;1.60;;;;;;;14.45;29.16;101557.00;5083468;28;20024;-67
2021/04/19 06:36:26;;;;;;;2.35;1.20;;;;;;;14.59;28.41;101564.72;5083719;28;20024;-67
2021/04/19 06:38:51;;;;;;;5.40;1.92;;;;;;;14.55;28.86;101560.41;5083678;28;20028;-66
2021/04/19 06:41:17;;;;;;;3.40;1.45;;;;;;;14.75;28.60;101557.66;5083520;28;20024;-67
2021/04/19 06:43:42;;;;;;;3.67;1.60;;;;;;;15.29;28.35;101557.25;5081971;28;20021;-67
2021/04/19 06:46:09;;;;;;;4.78;2.05;;;;;;;15.39;27.66;101560.63;5083172;28;20086;-67
2021/04/19 06:48:35;;;;;;;4.32;1.63;;;;;;;15.40;27.53;101554.53;5084546;28;20052;-66
2021/04/19 06:51:01;;;;;;;5.57;1.92;;;;;;;15.48;27.44;101558.78;5087406;28;20112;-67
2021/04/19 06:53:27;;;;;;;5.15;1.88;;;;;;;15.67;27.24;101549.88;5087472;28;20127;-66
2021/04/19 06:55:52;;;;;;;4.50;1.58;;;;;;;15.77;27.14;101550.63;5087364;28;20035;-66
2021/04/19 06:58:19;;;;;;;5.00;1.92;;;;;;;16.04;27.22;101546.81;5087247;28;20024;-66
2021/04/19 07:00:48;;;;;;;6.68;1.67;;;;;;;16.48;26.36;101540.97;5086982;28;20028;-67
2021/04/19 07:03:20;;;;;;;6.60;1.45;;;;;;;16.62;26.42;101551.25;5085839;28;20077;-66
2021/04/19 07:05:49;;;;;;;4.22;1.58;;;;;;;16.98;26.12;101548.06;5087152;28;20020;-66
2021/04/19 07:08:43;;;;;;;4.35;1.65;;;;;;;17.57;25.74;101549.63;5088196;28;20244;-66
2021/04/19 07:11:11;;;;;;;11.88;1.80;;;;;;;18.17;24.53;101543.19;5087236;28;20237;-66
2021/04/19 07:13:37;;;;;;;7.85;1.88;;;;;;;18.03;23.97;101536.47;5087055;28;20036;-66
2021/04/19 07:16:03;;;;;;;9.13;1.70;;;;;;;18.05;24.27;101542.53;5086884;28;20089;-66
2021/04/19 07:18:29;;;;;;;4.80;1.70;;;;;;;18.22;24.01;101541.34;5087022;28;20035;-66
2021/04/19 07:20:54;;;;;;;5.90;1.52;;;;;;;18.21;23.90;101540.47;5087159;28;20025;-66
2021/04/19 07:23:20;;;;;;;3.70;1.55;;;;;;;18.32;23.88;101534.13;5087458;28;20031;-66
2021/04/19 07:25:46;;;;;;;4.88;1.50;;;;;;;18.43;23.59;101533.88;5090268;28;20027;-65
2021/04/19 07:28:14;;;;;;;4.90;1.80;;;;;;;18.37;23.27;101536.63;5094775;28;20376;-65
2021/04/19 07:30:40;;;;;;;6.47;1.92;;;;;;;18.17;23.21;101543.19;5088928;28;20042;-66
2021/04/19 07:33:31;;;;;;;3.88;1.50;;;;;;;17.76;23.81;101545.78;5087816;28;20448;-65
2021/04/19 07:35:57;;;;;;;2.50;1.42;;;;;;;17.70;23.59;101547.63;5087113;28;20203;-65
2021/04/19 07:38:33;;;;;;;5.05;1.60;;;;;;;17.51;23.93;101528.75;5086568;28;20078;-65
2021/04/19 07:40:59;;;;;;;4.32;2.00;;;;;;;17.37;23.97;101528.16;5086456;28;20076;-65
2021/04/19 07:43:25;;;;;;;2.30;1.42;;;;;;;17.39;24.21;101524.63;5085117;28;20032;-65
2021/04/19 07:46:08;;;;;;;3.08;1.00;;;;;;;17.77;24.13;101532.63;5086154;28;20024;-65
2021/04/19 07:48:45;;;;;;;5.47;1.67;;;;;;;17.98;23.64;101532.19;5086295;28;20055;-65
2021/04/19 07:51:34;;;;;;;6.32;1.65;;;;;;;18.00;23.63;101533.91;5086340;28;20036;-65
2021/04/19 07:54:15;;;;;;;3.63;1.40;;;;;;;17.92;23.64;101535.81;5086302;28;20058;-64
2021/04/19 07:56:53;;;;;;;7.18;1.50;;;;;;;18.00;23.87;101536.53;5086299;28;20026;-64
2021/04/19 07:59:37;;;;;;;4.28;1.30;;;;;;;18.30;23.47;101533.28;5086100;28;20028;-64
2021/04/19 08:02:18;;;;;;;6.50;1.75;;;;;;;18.79;23.58;101530.34;5085777;28;20020;-64
2021/04/19 08:04:49;;;;;;;7.40;1.50;;;;;;;19.45;22.67;101526.94;5086163;28;20031;-66
2021/04/19 08:07:26;;;;;;;3.42;1.63;;;;;;;19.72;22.30;101526.16;5086078;28;20028;-66
2021/04/19 08:10:01;;;;;;;4.72;1.58;;;;;;;19.81;21.17;101529.41;5086158;28;20021;-66
2021/04/19 08:12:35;;;;;;;4.18;1.50;;;;;;;19.47;20.88;101521.63;5085660;28;20064;-65
2021/04/19 08:15:04;;;;;;;5.22;2.40;;;;;;;19.11;21.17;101519.94;5085666;28;20073;-65
2021/04/19 08:17:33;;;;;;;7.35;1.80;;;;;;;19.22;22.04;101520.50;5084499;28;20032;-67
2021/04/19 08:19:58;;;;;;;6.15;1.23;;;;;;;19.43;21.42;101520.81;5085665;28;20055;-64
2021/04/19 08:22:27;;;;;;;3.13;1.80;;;;;;;19.73;21.22;101512.13;5085627;28;20024;-64
2021/04/19 08:25:18;;;;;;;8.73;2.17;;;;;;;20.16;21.16;101509.97;5085698;28;20289;-64
2021/04/19 08:27:47;;;;;;;3.25;2.03;;;;;;;20.75;20.57;101505.41;5085676;28;20059;-65
2021/04/19 08:30:15;;;;;;;6.88;1.85;;;;;;;21.01;19.88;101503.69;5085370;28;20037;-65
2021/04/19 08:32:41;;;;;;;3.92;1.38;;;;;;;21.03;19.85;101501.88;5085031;28;20029;-65
2021/04/19 08:35:07;;;;;;;4.55;1.33;;;;;;;21.24;19.39;101509.94;5085267;28;20056;-65
2021/04/19 08:37:33;;;;;;;4.18;1.58;;;;;;;21.33;19.39;101497.31;5085365;28;20134;-66
2021/04/19 08:40:00;;;;;;;6.03;1.90;;;;;;;21.63;19.26;101500.59;5085318;28;20020;-65
2021/04/19 08:42:27;;;;;;;6.25;1.60;;;;;;;22.08;18.88;101500.69;5085263;28;20017;-65
2021/04/19 08:44:58;;;;;;;4.25;1.50;;;;;;;22.72;18.63;101505.19;5084885;28;20028;-64
2021/04/19 08:47:27;;;;;;;4.80;1.70;;;;;;;22.64;17.67;101508.16;5085069;28;20028;-66
2021/04/19 08:49:58;;;;;;;4.25;1.63;;;;;;;22.04;17.41;101502.56;5085116;28;20552;-67
2021/04/19 08:52:25;;;;;;;3.10;1.50;;;;;;;21.34;18.20;101505.19;5084864;28;20032;-66
2021/04/19 08:54:50;;;;;;;4.35;1.50;;;;;;;20.91;19.02;101499.63;5084961;28;20036;-65
2021/04/19 08:57:16;;;;;;;4.63;2.15;;;;;;;20.74;19.12;101501.06;5085094;28;20089;-64
2021/04/19 08:59:43;;;;;;;2.70;1.40;;;;;;;20.79;19.14;101499.13;5084835;28;20025;-65
2021/04/19 09:02:09;;;;;;;4.35;1.67;;;;;;;20.80;19.36;101498.22;5084527;28;20016;-65
2021/04/19 09:04:35;;;;;;;5.63;2.40;;;;;;;20.97;19.34;101494.16;5084604;28;20024;-64
2021/04/19 09:07:02;;;;;;;4.63;1.40;;;;;;;21.15;19.26;101499.72;5084917;28;20032;-64
2021/04/19 09:09:31;;;;;;;4.38;1.20;;;;;;;21.66;19.39;101494.34;5084398;28;20020;-64
2021/04/19 09:11:56;;;;;;;5.13;1.80;;;;;;;22.36;18.92;101496.94;5084095;28;20067;-64
2021/04/19 09:14:33;;;;;;;7.78;1.45;;;;;;;23.18;18.60;101494.38;5084669;28;20025;-64
2021/04/19 09:17:01;;;;;;;5.90;1.50;;;;;;;23.88;17.80;101488.59;5084207;28;20074;-64
2021/04/19 09:19:26;;;;;;;4.00;1.60;;;;;;;23.91;16.76;101484.06;5084455;28;20032;-64
2021/04/19 09:21:52;;;;;;;6.60;1.70;;;;;;;23.72;16.42;101480.50;5084256;28;20028;-65
2021/04/19 09:24:22;;;;;;;3.95;1.67;;;;;;;23.61;17.14;101474.88;5084432;28;20025;-64
2021/04/19 09:26:54;;;;;;;3.15;1.48;;;;;;;23.88;16.19;101470.03;5084221;28;20051;-64
2021/04/19 09:29:26;;;;;;;3.10;1.40;;;;;;;23.52;16.30;101474.34;5084379;28;20048;-65
2021/04/19 09:32:08;;;;;;;8.55;1.85;;;;;;;23.68;17.07;101478.06;5083608;28;20020;-65
2021/04/19 09:34:36;;;;;;;6.90;1.85;;;;;;;23.89;16.49;101477.06;5084452;28;20055;-65
2021/04/19 09:37:02;;;;;;;4.25;1.80;;;;;;;24.18;15.82;101479.25;5084127;28;20088;-65
2021/04/19 09:39:52;;;;;;;6.90;2.53;;;;;;;23.67;16.02;101474.56;5084361;28;20119;-65
2021/04/19 09:43:07;;;;;;;4.85;1.42;;;;;;;23.39;16.33;101468.75;5083862;28;20017;-65
2021/04/19 09:45:41;;;;;;;3.83;1.75;;;;;;;23.24;16.82;101478.22;5083813;28;20099;-65
2021/04/19 09:48:27;;;;;;;6.75;1.65;;;;;;;23.59;16.79;101472.28;5083744;28;20032;-65
2021/04/19 09:50:56;;;;;;;2.65;1.38;;;;;;;23.97;15.99;101468.72;5072200;28;20060;-65
2021/04/19 09:53:22;;;;;;;4.55;1.60;;;;;;;23.94;15.74;101444.16;5083838;28;20442;-66
2021/04/19 09:55:47;;;;;;;2.45;1.13;;;;;;;23.95;15.50;101459.13;5083829;28;20047;-65
2021/04/19 09:58:14;;;;;;;5.18;2.05;;;;;;;23.62;15.61;101456.25;5083707;28;20021;-65
2021/04/19 10:00:40;;;;;;;7.97;1.45;;;;;;;23.58;15.97;101459.09;5083551;28;20052;-68
2021/04/19 10:03:06;;;;;;;5.68;1.90;;;;;;;24.04;15.80;101447.22;5083510;28;20021;-65
2021/04/19 10:05:33;;;;;;;3.72;1.60;;;;;;;24.31;15.62;101449.47;5083737;28;20025;-65
2021/04/19 10:08:04;;;;;;;4.15;1.70;;;;;;;24.48;15.22;101445.94;5083604;28;20042;-65
2021/04/19 10:10:30;;;;;;;3.05;1.27;;;;;;;24.70;15.41;101448.34;5083882;28;20020;-65
2021/04/19 10:12:55;;;;;;;3.25;1.48;;;;;;;25.36;13.30;101443.16;5083579;28;20081;-66
2021/04/19 10:15:23;;;;;;;5.07;1.42;;;;;;;24.38;14.12;101434.94;5083365;28;20396;-65
2021/04/19 10:17:49;;;;;;;1.80;1.00;;;;;;;24.76;13.08;101439.22;5083758;28;20113;-66
2021/04/19 10:20:24;;;;;;;2.88;1.20;;;;;;;23.69;13.84;101427.63;5083694;28;20029;-66
2021/04/19 10:23:10;;;;;;;2.67;1.48;;;;;;;23.69;14.64;101432.09;5081147;28;20029;-66
2021/04/19 10:25:51;;;;;;;2.47;0.90;;;;;;;24.12;13.85;101434.44;5083636;28;20043;-65
2021/04/19 10:28:34;;;;;;;4.10;1.27;;;;;;;23.45;14.22;101437.63;5083604;28;20028;-66
2021/04/19 10:31:07;;;;;;;5.15;1.50;;;;;;;23.12;14.96;101429.31;5083017;28;20056;-65
2021/04/19 10:33:33;;;;;;;4.93;1.27;;;;;;;23.30;15.09;101428.53;5083424;28;20031;-65
2021/04/19 10:35:58;;;;;;;4.50;1.45;;;;;;;23.50;14.92;101417.91;5083335;28;20024;-65
2021/04/19 10:38:27;;;;;;;3.38;1.40;;;;;;;23.46;14.04;101424.28;5083588;28;20048;-65
2021/04/19 10:40:59;;;;;;;5.68;1.55;;;;;;;22.87;15.00;101421.63;5083535;28;20073;-65
2021/04/19 10:43:25;;;;;;;4.25;1.40;;;;;;;23.06;15.21;101412.84;5083160;28;20020;-65
2021/04/19 10:45:51;;;;;;;2.13;1.17;;;;;;;23.74;14.43;101412.38;5081825;28;20092;-66
2021/04/19 10:48:18;;;;;;;3.80;1.63;;;;;;;23.54;14.14;101415.09;5083009;28;20071;-66
2021/04/19 10:50:44;;;;;;;4.03;1.67;;;;;;;23.28;14.17;101418.03;5083355;28;20027;-66
2021/04/19 10:53:09;;;;;;;5.38;1.30;;;;;;;22.96;14.27;101415.03;5081969;28;20032;-66
2021/04/19 10:55:34;;;;;;;3.00;1.08;;;;;;;22.81;14.48;101416.59;5083169;28;20020;-65
2021/04/19 10:58:00;;;;;;;6.88;1.65;;;;;;;22.71;14.73;101411.72;5083293;28;20035;-65
2021/04/19 11:00:26;;;;;;;3.80;1.80;;;;;;;22.67;14.52;101418.06;5082902;28;20025;-65
2021/04/19 11:02:53;;;;;;;4.20;1.60;;;;;;;22.50;14.86;101419.63;5083099;28;20457;-65
2021/04/19 11:05:19;;;;;;;5.75;1.40;;;;;;;22.40;15.02;101405.06;5083210;28;20020;-66
2021/04/19 11:07:45;;;;;;;4.45;1.15;;;;;;;22.33;14.76;101408.91;5083101;28;20035;-66
2021/04/19 11:10:27;;;;;;;3.10;1.45;;;;;;;22.29;15.02;101403.75;5083166;28;20081;-66
2021/04/19 11:13:04;;;;;;;4.43;1.40;;;;;;;22.65;14.79;101401.41;5083020;28;20051;-65
2021/04/19 11:15:38;;;;;;;2.60;1.20;;;;;;;23.32;14.30;101402.84;5082769;28;20057;-66
2021/04/19 11:18:24;;;;;;;3.47;1.30;;;;;;;23.54;13.92;101389.47;5083246;28;20020;-65
2021/04/19 11:20:55;;;;;;;4.68;1.55;;;;;;;23.71;13.63;101393.97;5083024;28;20029;-64
2021/04/19 11:23:29;;;;;;;3.58;1.30;;;;;;;23.86;13.64;101386.19;5082887;28;20028;-66
2021/04/19 11:25:59;;;;;;;3.55;1.30;;;;;;;23.26;13.78;101388.94;5083176;28;20029;-66
2021/04/19 11:28:30;;;;;;;6.82;1.35;;;;;;;22.16;14.92;101386.66;5083233;28;20051;-66
2021/04/19 11:30:58;;;;;;;4.43;1.50;;;;;;;21.26;15.60;101383.13;5082827;28;20174;-66
2021/04/19 11:33:28;;;;;;;3.88;1.23;;;;;;;20.44;16.13;101385.13;5083819;28;20036;-66
2021/04/19 11:36:06;;;;;;;4.75;1.20;;;;;;;19.73;16.70;101380.41;5086604;28;20025;-65
2021/04/19 11:38:35;;;;;;;4.20;1.58;;;;;;;19.35;17.45;101381.50;5086713;28;20020;-67
2021/04/19 11:41:06;;;;;;;3.35;1.20;;;;;;;18.98;17.63;101380.78;5086381;28;20028;-65